createdAt,value
2019-02-25T07:45:43.907Z,4.40
2019-02-25T07:48:16.822Z,4.50
2019-02-25T07:51:02.782Z,4.70
2019-02-25T07:53:32.605Z,5.07
2019-02-25T07:56:14.435Z,5.57
2019-02-25T07:58:50.234Z,5.30
2019-02-25T08:01:29.024Z,5.43
2019-02-25T08:04:01.526Z,5.63
2019-02-25T08:06:39.804Z,5.90
2019-02-25T08:09:28.498Z,5.30
2019-02-25T08:11:58.346Z,5.43
2019-02-25T08:14:37.317Z,5.40
2019-02-25T08:17:23.507Z,6.63
2019-02-25T08:19:53.310Z,7.20
2019-02-25T08:22:23.134Z,5.20
2019-02-25T08:25:11.256Z,5.07
2019-02-25T08:27:46.774Z,6.07
2019-02-25T08:30:16.604Z,5.40
2019-02-25T08:32:49.543Z,5.97
2019-02-25T08:35:48.121Z,5.10
2019-02-25T08:38:26.514Z,4.90
2019-02-25T08:40:57.875Z,5.10
2019-02-25T08:43:36.335Z,6.20
2019-02-25T08:46:14.922Z,5.73
2019-02-25T08:48:44.742Z,5.07
2019-02-25T08:51:12.954Z,6.17
2019-02-25T08:53:41.125Z,4.97
2019-02-25T08:56:09.289Z,4.63
2019-02-25T08:58:37.508Z,4.90
2019-02-25T09:01:05.688Z,6.27
2019-02-25T09:03:33.885Z,5.80
2019-02-25T09:06:02.058Z,4.73
2019-02-25T09:08:30.530Z,5.53
2019-02-25T09:10:58.702Z,5.07
2019-02-25T09:13:26.880Z,5.10
2019-02-25T09:15:55.059Z,4.63
2019-02-25T09:18:23.254Z,5.60
2019-02-25T09:20:51.441Z,4.50
2019-02-25T09:23:19.624Z,5.07
2019-02-25T09:25:47.832Z,5.23
2019-02-25T09:28:16.011Z,5.40
2019-02-25T09:30:44.211Z,4.83
2019-02-25T09:33:12.389Z,5.47
2019-02-25T09:35:40.569Z,4.60
2019-02-25T09:38:08.742Z,4.60
2019-02-25T09:40:36.946Z,4.17
2019-02-25T09:43:05.150Z,4.70
2019-02-25T09:45:33.339Z,4.10
2019-02-25T09:48:01.511Z,4.93
2019-02-25T09:50:29.693Z,4.83
2019-02-25T09:52:57.861Z,4.80
2019-02-25T09:55:26.035Z,4.50
2019-02-25T09:57:54.245Z,4.90
2019-02-25T10:00:25.335Z,4.70
2019-02-25T10:02:53.511Z,4.53
2019-02-25T10:05:21.691Z,4.67
2019-02-25T10:07:49.861Z,4.90
2019-02-25T10:10:18.839Z,5.10
2019-02-25T10:12:47.076Z,6.13
2019-02-25T10:15:20.902Z,5.13
2019-02-25T10:17:49.065Z,5.10
2019-02-25T10:20:17.310Z,4.90
2019-02-25T10:22:45.601Z,4.83
2019-02-25T10:25:13.770Z,4.40
2019-02-25T10:27:41.962Z,4.77
2019-02-25T10:30:15.619Z,4.57
2019-02-25T10:32:43.781Z,4.83
2019-02-25T10:35:27.187Z,7.20
2019-02-25T10:37:55.547Z,4.27
2019-02-25T10:40:25.409Z,4.30
2019-02-25T10:42:53.698Z,4.13
2019-02-25T10:45:22.932Z,4.10
2019-02-25T10:47:51.824Z,4.07
2019-02-25T10:50:21.081Z,4.60
2019-02-25T10:52:49.613Z,3.90
2019-02-25T10:55:23.829Z,3.87
2019-02-25T10:57:52.860Z,3.70
2019-02-25T11:00:22.258Z,3.50
2019-02-25T11:02:51.266Z,3.60
2019-02-25T11:05:21.194Z,3.67
2019-02-25T11:07:50.257Z,3.40
2019-02-25T11:10:22.915Z,3.53
2019-02-25T11:12:51.375Z,3.57
2019-02-25T11:15:19.609Z,3.30
2019-02-25T11:17:49.610Z,3.30
2019-02-25T11:20:17.710Z,3.63
2019-02-25T11:22:46.689Z,3.10
2019-02-25T11:25:16.156Z,3.43
2019-02-25T11:27:44.399Z,3.10
2019-02-25T11:30:14.367Z,3.57
2019-02-25T11:32:43.905Z,3.43
2019-02-25T11:35:13.533Z,3.40
2019-02-25T11:37:42.140Z,3.60
2019-02-25T11:40:12.471Z,3.10
2019-02-25T11:42:40.642Z,3.23
2019-02-25T11:45:17.203Z,3.60
2019-02-25T11:47:45.443Z,3.47
2019-02-25T11:50:17.818Z,3.30
2019-02-25T11:52:46.121Z,3.00
2019-02-25T11:55:15.439Z,3.00
2019-02-25T11:57:43.756Z,3.13
2019-02-25T12:00:20.142Z,3.10
2019-02-25T12:02:48.327Z,3.20
2019-02-25T12:05:17.749Z,3.20
2019-02-25T12:07:45.934Z,2.80
2019-02-25T12:10:16.550Z,2.73
2019-02-25T12:12:44.730Z,3.10
2019-02-25T12:15:18.210Z,2.83
2019-02-25T12:17:46.387Z,3.20
2019-02-25T12:20:14.835Z,3.07
2019-02-25T12:22:43.082Z,2.53
2019-02-25T12:25:19.152Z,2.80
2019-02-25T12:27:47.333Z,2.73
2019-02-25T12:30:23.441Z,3.00
2019-02-25T12:32:51.635Z,2.97
2019-02-25T12:35:19.806Z,2.83
2019-02-25T12:37:48.046Z,3.03
2019-02-25T12:40:17.163Z,2.53
2019-02-25T12:42:45.404Z,2.50
2019-02-25T12:45:16.737Z,2.80
2019-02-25T12:47:44.985Z,2.87
2019-02-25T12:50:14.881Z,2.60
2019-02-25T12:52:43.073Z,2.83
2019-02-25T12:55:13.962Z,2.47
2019-02-25T12:57:42.205Z,2.37
2019-02-25T13:00:16.186Z,2.70
2019-02-25T13:02:44.624Z,2.40
2019-02-25T13:05:15.781Z,2.40
2019-02-25T13:07:44.262Z,2.13
2019-02-25T13:10:14.965Z,2.70
2019-02-25T13:12:43.160Z,2.50
2019-02-25T13:15:18.863Z,2.60
2019-02-25T13:17:47.285Z,2.37
2019-02-25T13:20:15.830Z,2.40
2019-02-25T13:22:44.015Z,2.57
2019-02-25T13:25:31.995Z,1.87
2019-02-25T13:28:02.094Z,1.90
2019-02-25T13:30:30.378Z,1.87
2019-02-25T13:32:58.636Z,1.90
2019-02-25T13:35:26.804Z,1.70
2019-02-25T13:37:54.993Z,2.20
2019-02-25T13:40:23.187Z,2.00
2019-02-25T13:42:51.637Z,2.60
2019-02-25T13:45:21.028Z,2.17
2019-02-25T13:47:49.290Z,2.50
2019-02-25T13:50:18.273Z,2.00
2019-02-25T13:52:48.430Z,2.83
2019-02-25T13:55:20.915Z,2.40
2019-02-25T13:57:49.111Z,2.70
2019-02-25T14:00:22.833Z,2.17
2019-02-25T14:02:51.243Z,2.30
2019-02-25T14:05:19.866Z,2.93
2019-02-25T14:07:48.329Z,2.80
2019-02-25T14:10:18.524Z,2.33
2019-02-25T14:12:46.914Z,3.10
2019-02-25T14:15:25.219Z,3.00
2019-02-25T14:17:53.683Z,3.07
2019-02-25T14:20:23.189Z,3.30
2019-02-25T14:22:51.462Z,2.73
2019-02-25T14:25:22.794Z,3.20
2019-02-25T14:27:51.034Z,3.27
2019-02-25T14:30:21.700Z,3.20
2019-02-25T14:32:53.067Z,3.03
2019-02-25T14:35:21.578Z,2.43
2019-02-25T14:37:49.754Z,2.67
2019-02-25T14:40:21.284Z,2.43
2019-02-25T14:42:52.024Z,2.77
2019-02-25T14:45:21.878Z,2.50
2019-02-25T14:47:55.358Z,2.50
2019-02-25T14:50:23.612Z,2.40
2019-02-25T14:52:52.401Z,2.40
2019-02-25T14:55:20.851Z,2.80
2019-02-25T14:57:49.018Z,2.50
2019-02-25T15:00:26.815Z,2.17
2019-02-25T15:02:55.642Z,2.30
2019-02-25T15:05:24.756Z,2.00
2019-02-25T15:07:53.525Z,2.10
2019-02-25T15:10:26.690Z,2.00
2019-02-25T15:12:56.556Z,2.00
2019-02-25T15:15:23.835Z,2.03
2019-02-25T15:17:52.746Z,2.17
2019-02-25T15:20:23.382Z,2.10
2019-02-25T15:22:52.365Z,5.70
2019-02-25T15:25:21.175Z,2.20
2019-02-25T15:27:49.361Z,1.73
2019-02-25T15:30:25.057Z,1.93
2019-02-25T15:32:56.946Z,1.83
2019-02-25T15:35:26.477Z,2.00
2019-02-25T15:37:55.452Z,1.90
2019-02-25T15:40:25.087Z,2.20
2019-02-25T15:43:05.580Z,2.00
2019-02-25T15:45:40.644Z,3.00
2019-02-25T15:48:13.021Z,2.13
2019-02-25T15:50:44.097Z,2.57
2019-02-25T15:53:12.387Z,2.00
2019-02-25T15:55:41.605Z,2.30
2019-02-25T15:58:09.952Z,2.10
2019-02-25T16:00:38.714Z,2.23
2019-02-25T16:03:09.125Z,2.00
2019-02-25T16:05:38.292Z,2.00
2019-02-25T16:08:07.146Z,2.37
2019-02-25T16:10:35.317Z,2.60
2019-02-25T16:13:05.975Z,4.47
2019-02-25T16:15:34.088Z,4.27
2019-02-25T16:18:02.547Z,3.90
2019-02-25T16:20:32.549Z,2.67
2019-02-25T16:23:02.789Z,4.50
2019-02-25T16:25:32.229Z,3.30
2019-02-25T16:28:00.982Z,2.90
2019-02-25T16:30:30.710Z,2.70
2019-02-25T16:33:00.093Z,2.70
2019-02-25T16:35:29.094Z,2.80
2019-02-25T16:37:57.623Z,2.53
2019-02-25T16:40:28.651Z,2.13
2019-02-25T16:42:59.396Z,2.70
2019-02-25T16:45:32.383Z,2.37
2019-02-25T16:47:57.559Z,2.63
2019-02-25T16:50:25.919Z,2.20
2019-02-25T16:52:54.170Z,2.60
2019-02-25T16:55:25.767Z,2.50
2019-02-25T16:57:54.518Z,3.30
2019-02-25T17:00:29.417Z,6.00
2019-02-25T17:02:59.245Z,8.77
2019-02-25T17:05:27.227Z,8.03
2019-02-25T17:07:56.235Z,6.30
2019-02-25T17:10:27.110Z,5.53
2019-02-25T17:12:55.765Z,8.77
2019-02-25T17:15:26.356Z,6.47
2019-02-25T17:17:54.004Z,6.10
2019-02-25T17:20:22.794Z,6.80
2019-02-25T17:22:51.061Z,6.97
2019-02-25T17:25:19.806Z,7.03
2019-02-25T17:27:48.965Z,6.20
2019-02-25T17:30:23.666Z,6.83
2019-02-25T17:32:51.689Z,5.87
2019-02-25T17:35:25.955Z,5.60
2019-02-25T17:37:55.727Z,6.40
2019-02-25T17:40:24.067Z,5.90
2019-02-25T17:42:54.029Z,5.13
2019-02-25T17:45:32.427Z,5.30
2019-02-25T17:48:03.140Z,5.37
2019-02-25T17:50:30.791Z,5.00
2019-02-25T17:53:00.922Z,5.20
2019-02-25T17:55:31.714Z,4.30
2019-02-25T17:58:00.998Z,4.00
2019-02-25T18:00:33.880Z,4.33
2019-02-25T18:03:03.565Z,4.70
2019-02-25T18:05:33.499Z,3.70
2019-02-25T18:08:02.919Z,4.10
2019-02-25T18:10:31.742Z,4.40
2019-02-25T18:13:01.289Z,4.97
2019-02-25T18:15:33.626Z,4.00
2019-02-25T18:18:01.944Z,4.23
2019-02-25T18:20:30.644Z,4.90
2019-02-25T18:22:59.266Z,4.50
2019-02-25T18:25:27.463Z,5.07
2019-02-25T18:27:55.714Z,4.80
2019-02-25T18:30:27.091Z,4.77
2019-02-25T18:32:58.305Z,4.60
2019-02-25T18:35:25.665Z,4.90
2019-02-25T18:37:54.190Z,5.60
2019-02-25T18:40:24.030Z,5.87
2019-02-25T18:42:52.503Z,5.97
2019-02-25T18:45:21.044Z,6.83
2019-02-25T18:47:50.136Z,6.40
2019-02-25T18:50:21.775Z,6.90
2019-02-25T18:52:52.317Z,5.87
2019-02-25T18:55:24.427Z,5.73
2019-02-25T18:57:53.138Z,5.00
2019-02-25T19:00:31.512Z,6.20
2019-02-25T19:03:00.347Z,5.73
2019-02-25T19:05:31.469Z,5.83
2019-02-25T19:07:59.856Z,5.70
2019-02-25T19:10:28.578Z,6.03
2019-02-25T19:12:58.647Z,5.90
2019-02-25T19:15:26.889Z,5.23
2019-02-25T19:17:55.094Z,5.27
2019-02-25T19:20:24.148Z,5.57
2019-02-25T19:22:52.382Z,4.97
2019-02-25T19:25:22.960Z,4.47
2019-02-25T19:27:52.256Z,4.80
2019-02-25T19:30:22.264Z,4.70
2019-02-25T19:32:50.639Z,5.00
2019-02-25T19:35:18.878Z,4.40
2019-02-25T19:37:47.213Z,4.80
2019-02-25T19:40:19.553Z,4.70
2019-02-25T19:42:51.370Z,4.03
2019-02-25T19:45:19.289Z,4.43
2019-02-25T19:47:47.718Z,4.47
2019-02-25T19:50:19.848Z,4.07
2019-02-25T19:52:48.066Z,4.80
2019-02-25T19:55:18.360Z,4.80
2019-02-25T19:57:46.524Z,4.43
2019-02-25T20:00:23.186Z,4.87
2019-02-25T20:02:51.893Z,5.00
2019-02-25T20:05:21.767Z,4.77
2019-02-25T20:07:50.438Z,4.67
2019-02-25T20:10:19.084Z,5.03
2019-02-25T20:12:50.058Z,4.50
2019-02-25T20:15:23.079Z,4.83
2019-02-25T20:17:51.253Z,4.50
2019-02-25T20:20:20.267Z,4.63
2019-02-25T20:22:48.433Z,4.13
2019-02-25T20:25:18.854Z,4.10
2019-02-25T20:27:47.222Z,4.53
2019-02-25T20:30:21.256Z,4.67
2019-02-25T20:32:49.158Z,4.50
2019-02-25T20:35:19.855Z,4.50
2019-02-25T20:37:51.490Z,5.23
2019-02-25T20:40:21.267Z,4.97
2019-02-25T20:42:50.965Z,4.73
2019-02-25T20:45:25.237Z,4.73
2019-02-25T20:47:55.145Z,4.80
2019-02-25T20:50:24.737Z,5.27
2019-02-25T20:52:52.927Z,4.67
2019-02-25T20:55:21.127Z,4.97
2019-02-25T20:57:49.319Z,4.40
2019-02-25T21:00:21.815Z,4.07
2019-02-25T21:02:49.978Z,4.47
2019-02-25T21:05:21.851Z,4.57
2019-02-25T21:07:48.220Z,4.47
2019-02-25T21:10:18.103Z,5.00
2019-02-25T21:12:46.347Z,4.53
2019-02-25T21:15:16.745Z,3.87
2019-02-25T21:17:44.980Z,4.40
2019-02-25T21:20:14.731Z,4.03
2019-02-25T21:22:44.445Z,4.90
2019-02-25T21:25:14.349Z,4.93
2019-02-25T21:27:42.590Z,4.20
2019-02-25T21:30:16.009Z,4.10
2019-02-25T21:32:47.118Z,4.03
2019-02-25T21:35:23.507Z,4.60
2019-02-25T21:37:52.315Z,4.10
2019-02-25T21:40:24.481Z,4.43
2019-02-25T21:42:54.036Z,4.70
2019-02-25T21:45:24.525Z,4.20
2019-02-25T21:47:54.116Z,3.60
2019-02-25T21:50:26.259Z,3.70
2019-02-25T21:52:52.577Z,3.97
2019-02-25T21:55:20.822Z,3.60
2019-02-25T21:57:48.985Z,4.30
2019-02-25T22:00:22.834Z,3.77
2019-02-25T22:02:52.719Z,4.13
2019-02-25T22:05:23.593Z,3.90
2019-02-25T22:07:54.360Z,4.30
2019-02-25T22:10:21.360Z,4.70
2019-02-25T22:12:49.587Z,4.70
2019-02-25T22:15:19.709Z,5.03
2019-02-25T22:17:50.270Z,4.70
2019-02-25T22:20:21.791Z,4.30
2019-02-25T22:22:49.512Z,4.17
2019-02-25T22:25:20.555Z,4.10
2019-02-25T22:27:48.742Z,4.40
2019-02-25T22:30:17.754Z,4.43
2019-02-25T22:32:45.949Z,4.10
2019-02-25T22:35:15.086Z,4.83
2019-02-25T22:37:46.800Z,4.63
2019-02-25T22:40:16.938Z,4.90
2019-02-25T22:42:44.873Z,4.33
2019-02-25T22:45:21.044Z,4.40
2019-02-25T22:47:49.529Z,4.33
2019-02-25T22:50:17.726Z,4.50
2019-02-25T22:52:45.896Z,4.60
2019-02-25T22:55:17.973Z,4.17
2019-02-25T22:57:46.696Z,4.10
2019-02-25T23:00:44.374Z,4.20
2019-02-25T23:03:15.215Z,4.40
2019-02-25T23:05:43.611Z,4.60
2019-02-25T23:08:13.636Z,4.53
2019-02-25T23:10:44.450Z,4.40
2019-02-25T23:13:13.050Z,4.50
2019-02-25T23:15:43.815Z,4.60
2019-02-25T23:18:12.386Z,4.33
2019-02-25T23:20:41.440Z,4.57
2019-02-25T23:23:11.130Z,4.10
2019-02-25T23:25:39.289Z,4.57
2019-02-25T23:28:07.815Z,4.70
2019-02-25T23:30:39.103Z,4.53
2019-02-25T23:33:07.956Z,4.77
2019-02-25T23:35:35.769Z,4.23
2019-02-25T23:38:03.961Z,4.50
2019-02-25T23:40:35.325Z,4.37
2019-02-25T23:43:03.387Z,4.23
2019-02-25T23:45:31.899Z,4.57
2019-02-25T23:48:01.906Z,4.70
2019-02-25T23:50:31.798Z,4.60
2019-02-25T23:53:00.178Z,4.50
2019-02-25T23:55:29.667Z,5.23
2019-02-25T23:57:57.922Z,4.60
